Time;durP1;ratioP1;P1;durP2;ratioP2;P2;SDS_P1;SDS_P2;PMS_P1;PMS_P2;Temp;Humidity;BMP_temperature;BMP_pressure;BME280_temperature;BME280_humidity;BME280_pressure;Samples;Min_cycle;Max_cycle;Signal;HPM_P1;HPM_P2
2023/04/01 00:02:08;;;;;;;15.70;10.80;;;;;;;10.35;86.26;98564.02;103675;279;38826;-72
2023/04/01 00:04:42;;;;;;;14.20;11.50;;;;;;;10.35;86.38;98564.39;103649;279;38993;-73
2023/04/01 00:07:16;;;;;;;14.20;11.50;;;;;;;10.38;86.50;98559.63;103652;279;39434;-75
2023/04/01 00:09:52;;;;;;;15.10;12.30;;;;;;;10.39;86.58;98554.36;103711;279;39044;-73
2023/04/01 00:12:26;;;;;;;17.20;12.30;;;;;;;10.40;86.54;98555.31;103706;279;39428;-72
2023/04/01 00:15:00;;;;;;;15.90;11.70;;;;;;;10.40;86.53;98556.21;103675;279;39708;-72
2023/04/01 00:17:34;;;;;;;14.90;11.60;;;;;;;10.41;86.62;98556.36;103631;279;41431;-69
2023/04/01 00:20:10;;;;;;;14.40;11.50;;;;;;;10.40;86.53;98552.73;103658;279;39563;-72
2023/04/01 00:22:44;;;;;;;14.80;12.20;;;;;;;10.41;86.53;98551.23;103699;279;40273;-71
2023/04/01 00:25:18;;;;;;;15.20;12.40;;;;;;;10.42;86.71;98549.65;103662;279;38783;-71
2023/04/01 00:27:52;;;;;;;16.00;13.00;;;;;;;10.42;86.72;98545.45;103690;279;38916;-72
2023/04/01 00:30:26;;;;;;;17.40;12.00;;;;;;;10.39;86.54;98542.70;103676;279;38512;-74
2023/04/01 00:33:00;;;;;;;15.80;11.60;;;;;;;10.37;86.44;98541.59;103665;279;39632;-73
2023/04/01 00:35:34;;;;;;;12.90;11.40;;;;;;;10.36;86.44;98540.63;103646;279;38495;-74
2023/04/01 00:38:08;;;;;;;15.80;12.40;;;;;;;10.35;86.29;98541.20;103697;283;39639;-71
2023/04/01 00:40:43;;;;;;;15.80;12.60;;;;;;;10.34;86.66;98536.73;103673;279;39357;-72
2023/04/01 00:43:20;;;;;;;16.10;12.20;;;;;;;10.34;86.78;98535.33;103681;279;38841;-72
2023/04/01 00:45:55;;;;;;;15.20;12.00;;;;;;;10.30;86.39;98535.56;103664;279;38614;-73
2023/04/01 00:48:30;;;;;;;15.50;13.00;;;;;;;10.28;86.41;98537.27;103685;279;38887;-69
2023/04/01 00:51:08;;;;;;;14.80;12.30;;;;;;;10.30;86.52;98534.90;103600;279;174924;-72
2023/04/01 00:53:44;;;;;;;16.50;13.30;;;;;;;10.31;86.57;98531.88;103701;279;38684;-70
2023/04/01 00:56:20;;;;;;;18.70;14.30;;;;;;;10.32;86.67;98527.80;103698;279;38465;-70
2023/04/01 00:59:01;;;;;;;20.80;14.60;;;;;;;10.32;86.80;98531.27;103674;279;39667;-72
2023/04/01 01:01:35;;;;;;;15.40;12.40;;;;;;;10.34;86.75;98531.14;103663;279;39602;-70
2023/04/01 01:04:20;;;;;;;17.80;13.10;;;;;;;10.32;86.64;98518.52;103669;279;39960;-69
2023/04/01 01:07:00;;;;;;;17.90;13.80;;;;;;;10.30;86.49;98520.60;103680;279;38527;-74
2023/04/01 01:09:44;;;;;;;17.40;14.50;;;;;;;10.29;86.80;98521.39;103668;279;38398;-75
2023/04/01 01:12:21;;;;;;;20.30;15.00;;;;;;;10.27;86.83;98517.52;103669;279;38405;-73
2023/04/01 01:15:01;;;;;;;21.20;14.60;;;;;;;10.27;86.97;98523.77;103650;279;38513;-75
2023/04/01 01:17:43;;;;;;;16.90;13.50;;;;;;;10.25;87.06;98526.66;103722;278;39259;-72
2023/04/01 01:20:54;;;;;;;17.90;14.20;;;;;;;10.26;87.21;98527.66;103790;267;39609;-74
2023/04/01 01:24:03;;;;;;;17.50;14.90;;;;;;;10.27;87.18;98531.46;103797;279;40023;-73
2023/04/01 01:27:07;;;;;;;18.10;14.50;;;;;;;10.30;87.35;98526.02;103623;278;38297;-72
2023/04/01 01:30:15;;;;;;;18.60;14.60;;;;;;;10.31;87.40;98527.66;103753;278;38258;-71
2023/04/01 01:33:26;;;;;;;18.90;14.40;;;;;;;10.35;87.33;98529.36;103787;278;40128;-72
2023/04/01 01:36:00;;;;;;;21.80;14.90;;;;;;;10.37;87.36;98528.35;103338;278;38870;-72
2023/04/01 01:38:35;;;;;;;19.30;15.60;;;;;;;10.39;87.09;98529.80;103761;278;39950;-74
2023/04/01 01:41:09;;;;;;;18.50;15.50;;;;;;;10.39;87.09;98529.29;103794;278;39973;-70
2023/04/01 01:43:47;;;;;;;20.60;15.50;;;;;;;10.39;87.28;98529.41;103662;278;174864;-70
2023/04/01 01:46:23;;;;;;;15.40;13.80;;;;;;;10.41;87.30;98535.19;103799;278;38792;-72
2023/04/01 01:48:57;;;;;;;18.30;15.20;;;;;;;10.43;87.16;98531.41;103637;280;39635;-71
2023/04/01 01:51:31;;;;;;;19.10;15.40;;;;;;;10.44;87.17;98531.89;103787;278;38243;-74
2023/04/01 01:54:05;;;;;;;19.80;15.70;;;;;;;10.45;87.17;98534.07;103765;278;38280;-74
2023/04/01 01:56:39;;;;;;;19.30;14.70;;;;;;;10.44;87.11;98529.80;103813;278;39927;-72
2023/04/01 01:59:14;;;;;;;16.30;14.40;;;;;;;10.43;86.84;98527.58;103660;279;38363;-73
2023/04/01 02:01:50;;;;;;;17.30;14.00;;;;;;;10.42;87.02;98528.54;103799;278;38395;-70
2023/04/01 02:04:24;;;;;;;16.90;14.60;;;;;;;10.45;87.10;98523.11;103775;278;39667;-70
2023/04/01 02:07:01;;;;;;;18.70;15.60;;;;;;;10.49;87.26;98520.89;103813;278;38419;-71
2023/04/01 02:09:35;;;;;;;21.40;17.10;;;;;;;10.49;87.01;98514.80;103776;278;38288;-72
2023/04/01 02:12:10;;;;;;;19.40;16.00;;;;;;;10.50;86.98;98514.89;103781;278;39453;-74
2023/04/01 02:14:46;;;;;;;18.70;16.20;;;;;;;10.51;87.15;98513.45;103797;279;39541;-74
2023/04/01 02:17:22;;;;;;;20.10;16.50;;;;;;;10.49;86.93;98508.53;103766;279;39793;-71
2023/04/01 02:19:57;;;;;;;19.70;15.50;;;;;;;10.49;86.97;98507.31;103684;279;177691;-70
2023/04/01 02:22:32;;;;;;;19.80;16.50;;;;;;;10.51;87.14;98501.28;103767;278;39939;-72
2023/04/01 02:25:11;;;;;;;19.50;16.40;;;;;;;10.52;86.99;98497.69;103713;278;38633;-70
2023/04/01 02:27:45;;;;;;;19.60;16.00;;;;;;;10.48;86.83;98498.52;103792;278;38847;-70
2023/04/01 02:30:20;;;;;;;20.80;17.70;;;;;;;10.44;86.94;98497.35;103764;278;38789;-73
2023/04/01 02:32:54;;;;;;;18.00;15.60;;;;;;;10.42;87.07;98496.13;103795;278;38978;-72
2023/04/01 02:35:28;;;;;;;20.20;16.60;;;;;;;10.38;87.11;98493.23;103752;278;39655;-70
2023/04/01 02:38:02;;;;;;;20.70;16.30;;;;;;;10.35;87.20;98492.55;103809;278;39422;-73
2023/04/01 02:40:48;;;;;;;22.60;16.90;;;;;;;10.36;87.30;98493.38;103771;278;39403;-73
2023/04/01 02:43:23;;;;;;;21.90;18.50;;;;;;;10.38;87.53;98494.45;103810;279;39260;-74
2023/04/01 02:45:57;;;;;;;23.80;18.30;;;;;;;10.39;87.56;98494.95;103812;279;39626;-72
2023/04/01 02:48:31;;;;;;;22.90;17.50;;;;;;;10.39;87.49;98496.98;103802;278;38975;-72
2023/04/01 02:51:05;;;;;;;23.20;17.50;;;;;;;10.40;87.41;98491.73;103703;279;39974;-72
2023/04/01 02:53:39;;;;;;;20.90;17.60;;;;;;;10.38;87.23;98497.79;103746;326;39367;-70
2023/04/01 02:56:13;;;;;;;32.30;18.60;;;;;;;10.36;87.42;98493.19;103793;266;38234;-72
2023/04/01 02:58:47;;;;;;;19.10;16.80;;;;;;;10.34;87.41;98494.52;103667;278;172630;-72
2023/04/01 03:01:21;;;;;;;19.80;15.10;;;;;;;10.32;87.36;98497.80;103748;278;39381;-72
2023/04/01 03:03:55;;;;;;;21.90;17.30;;;;;;;10.28;86.96;98503.13;103790;278;39391;-73
2023/04/01 03:06:29;;;;;;;20.60;18.00;;;;;;;10.22;86.97;98509.63;103788;278;38632;-73
2023/04/01 03:09:04;;;;;;;23.00;18.60;;;;;;;10.21;87.21;98508.80;103799;278;39417;-75
2023/04/01 03:11:38;;;;;;;25.50;19.20;;;;;;;10.20;87.52;98508.36;103628;279;38800;-72
2023/04/01 03:14:12;;;;;;;22.10;17.70;;;;;;;10.20;87.44;98512.05;103649;278;174880;-70
2023/04/01 03:16:46;;;;;;;22.80;18.20;;;;;;;10.20;87.60;98510.96;103780;279;38253;-71
2023/04/01 03:19:20;;;;;;;22.70;18.00;;;;;;;10.20;87.60;98512.89;103762;278;38503;-72
2023/04/01 03:21:54;;;;;;;23.20;19.40;;;;;;;10.20;87.65;98513.92;103824;278;38231;-72
2023/04/01 03:24:29;;;;;;;20.60;18.30;;;;;;;10.22;87.58;98518.85;103779;278;38792;-70
2023/04/01 03:27:04;;;;;;;23.40;18.70;;;;;;;10.22;87.66;98520.25;103762;278;38941;-70
2023/04/01 03:29:38;;;;;;;22.20;18.10;;;;;;;10.21;87.68;98517.15;103705;278;175328;-70
2023/04/01 03:32:12;;;;;;;19.90;17.00;;;;;;;10.20;87.67;98519.50;103807;278;38501;-72
2023/04/01 03:34:46;;;;;;;20.50;16.80;;;;;;;10.20;87.67;98523.51;103797;278;38848;-71
2023/04/01 03:37:20;;;;;;;18.30;16.20;;;;;;;10.19;87.52;98523.10;103859;278;39665;-72
2023/04/01 03:39:54;;;;;;;21.10;17.00;;;;;;;10.17;87.81;98525.25;103781;279;39690;-70
2023/04/01 03:42:30;;;;;;;18.40;15.90;;;;;;;10.16;87.76;98521.37;103801;279;39408;-70
2023/04/01 03:45:05;;;;;;;21.50;15.90;;;;;;;10.14;87.77;98529.14;103791;278;39130;-72
2023/04/01 03:47:39;;;;;;;18.30;14.40;;;;;;;10.14;87.84;98528.23;103821;278;38936;-74
2023/04/01 03:50:14;;;;;;;16.50;14.70;;;;;;;10.14;87.74;98531.21;103795;278;38420;-74
2023/04/01 03:52:49;;;;;;;17.30;15.20;;;;;;;10.14;87.82;98528.58;103815;278;38270;-71
2023/04/01 03:55:22;;;;;;;18.20;14.40;;;;;;;10.15;87.80;98533.76;103780;278;38345;-74
2023/04/01 03:57:56;;;;;;;16.90;14.30;;;;;;;10.14;87.67;98542.70;103723;278;175366;-72
2023/04/01 04:00:31;;;;;;;16.60;13.80;;;;;;;10.14;87.52;98542.73;103766;278;38531;-70
2023/04/01 04:03:06;;;;;;;17.10;13.70;;;;;;;10.15;87.46;98542.46;103680;279;38389;-74
2023/04/01 04:05:42;;;;;;;19.50;15.30;;;;;;;10.14;87.48;98544.28;103836;278;38427;-73
2023/04/01 04:08:16;;;;;;;17.00;14.50;;;;;;;10.11;87.31;98551.63;103810;278;38497;-72
2023/04/01 04:10:56;;;;;;;16.10;14.10;;;;;;;10.07;87.46;98555.56;103755;278;39247;-70
2023/04/01 04:13:31;;;;;;;16.00;13.70;;;;;;;10.05;87.42;98555.14;103786;278;38474;-73
2023/04/01 04:16:06;;;;;;;16.30;13.70;;;;;;;10.04;87.51;98557.68;103673;280;39448;-71
2023/04/01 04:18:43;;;;;;;15.40;13.80;;;;;;;10.05;87.63;98558.47;103811;278;38241;-69
2023/04/01 04:21:18;;;;;;;16.80;14.00;;;;;;;10.04;87.53;98559.72;103769;267;38627;-72
2023/04/01 04:23:52;;;;;;;15.40;13.80;;;;;;;10.02;87.47;98562.14;103808;278;38276;-72
2023/04/01 04:26:26;;;;;;;15.70;13.30;;;;;;;9.98;87.61;98564.83;103801;278;38707;-73
2023/04/01 04:29:01;;;;;;;16.90;13.70;;;;;;;9.96;87.61;98569.67;103806;278;38468;-71
2023/04/01 04:31:35;;;;;;;15.20;12.80;;;;;;;9.98;87.64;98571.15;103648;278;38236;-70
2023/04/01 04:34:09;;;;;;;15.40;12.60;;;;;;;9.99;87.78;98570.33;103813;278;39051;-70
2023/04/01 04:36:44;;;;;;;15.40;13.50;;;;;;;10.01;87.73;98573.86;103826;278;39869;-72
2023/04/01 04:39:17;;;;;;;19.50;14.40;;;;;;;10.02;87.84;98575.35;103809;278;38925;-72
2023/04/01 04:41:51;;;;;;;16.40;12.20;;;;;;;10.01;87.68;98579.80;103795;278;38864;-70
2023/04/01 04:44:25;;;;;;;14.30;12.10;;;;;;;9.99;87.52;98578.88;103804;278;38859;-72
2023/04/01 04:46:59;;;;;;;14.30;11.60;;;;;;;9.98;87.51;98582.62;103777;278;39667;-71
2023/04/01 04:49:34;;;;;;;13.40;12.00;;;;;;;10.00;87.73;98581.60;103797;278;40493;-71
2023/04/01 04:52:08;;;;;;;12.90;11.60;;;;;;;10.02;87.71;98583.23;103643;280;40010;-72
2023/04/01 04:54:42;;;;;;;16.00;13.20;;;;;;;10.02;87.62;98585.16;103773;278;38319;-74
2023/04/01 04:57:16;;;;;;;14.10;11.60;;;;;;;9.99;87.37;98580.44;103840;278;41034;-73
2023/04/01 04:59:50;;;;;;;14.20;11.30;;;;;;;9.98;87.45;98585.71;103781;278;39791;-74
2023/04/01 05:02:26;;;;;;;12.30;11.10;;;;;;;9.99;87.30;98585.82;103822;278;38655;-70
2023/04/01 05:05:00;;;;;;;11.40;10.20;;;;;;;10.01;87.36;98585.02;103775;278;38680;-70
2023/04/01 05:07:34;;;;;;;13.80;11.50;;;;;;;10.04;87.38;98586.41;103822;279;38401;-69
2023/04/01 05:10:10;;;;;;;13.50;11.20;;;;;;;10.04;87.23;98587.64;103798;278;38231;-70
2023/04/01 05:12:44;;;;;;;12.50;10.80;;;;;;;10.01;87.14;98585.89;103845;278;38529;-71
2023/04/01 05:15:19;;;;;;;13.20;10.70;;;;;;;9.99;87.09;98583.27;103791;278;38256;-69
2023/04/01 05:17:53;;;;;;;12.00;10.50;;;;;;;9.95;86.83;98583.70;103783;279;39407;-69
2023/04/01 05:20:27;;;;;;;11.70;10.30;;;;;;;9.95;87.07;98584.22;103792;267;38369;-70
2023/04/01 05:23:02;;;;;;;11.70;10.40;;;;;;;9.97;87.21;98583.92;103658;278;175383;-72
2023/04/01 05:25:38;;;;;;;13.10;10.60;;;;;;;9.97;87.07;98588.41;103651;280;38374;-72
2023/04/01 05:28:12;;;;;;;12.50;10.00;;;;;;;9.97;87.22;98587.73;103787;278;38332;-71
2023/04/01 05:30:46;;;;;;;11.80;10.00;;;;;;;9.99;87.11;98591.23;103773;278;38550;-71
2023/04/01 05:33:22;;;;;;;11.80;9.30;;;;;;;10.00;87.20;98589.95;103791;278;38443;-74
2023/04/01 05:35:56;;;;;;;10.30;9.20;;;;;;;10.04;87.34;98585.33;103797;279;39410;-74
2023/04/01 05:38:31;;;;;;;12.30;10.00;;;;;;;10.13;87.80;98590.00;103814;278;39642;-73
2023/04/01 05:41:07;;;;;;;12.20;10.00;;;;;;;10.22;87.92;98584.55;103757;278;39454;-72
2023/04/01 05:43:41;;;;;;;9.80;8.80;;;;;;;10.34;87.98;98581.55;103820;267;39418;-74
2023/04/01 05:46:16;;;;;;;10.70;8.40;;;;;;;10.48;88.10;98581.64;103776;278;38475;-71
2023/04/01 05:48:50;;;;;;;11.10;9.70;;;;;;;10.61;88.15;98584.44;103677;278;175279;-71
2023/04/01 05:51:25;;;;;;;9.90;8.90;;;;;;;10.77;87.79;98586.98;103776;278;38526;-72
2023/04/01 05:53:59;;;;;;;10.50;9.50;;;;;;;10.94;87.77;98589.73;103791;278;38614;-71
2023/04/01 05:56:33;;;;;;;8.90;8.00;;;;;;;11.11;87.57;98592.41;103802;278;38276;-75
2023/04/01 05:59:07;;;;;;;8.50;7.70;;;;;;;11.22;86.99;98592.02;103815;278;38510;-73
2023/04/01 06:01:41;;;;;;;9.10;8.10;;;;;;;11.30;86.58;98591.44;103762;279;39386;-72
2023/04/01 06:04:20;;;;;;;9.80;8.60;;;;;;;11.38;86.36;98592.47;103781;278;38809;-72
2023/04/01 06:06:55;;;;;;;9.00;8.20;;;;;;;11.57;87.10;98588.70;103730;278;38235;-72
2023/04/01 06:09:32;;;;;;;8.40;7.60;;;;;;;11.86;87.27;98592.89;103790;278;38458;-72
2023/04/01 06:12:30;;;;;;;8.00;7.20;;;;;;;11.99;86.08;98596.54;103793;278;38430;-71
2023/04/01 06:15:19;;;;;;;7.30;6.60;;;;;;;12.08;85.01;98599.61;103832;279;38507;-71
2023/04/01 06:18:27;;;;;;;6.70;6.10;;;;;;;12.14;84.44;98603.19;103839;278;38464;-70
2023/04/01 06:21:04;;;;;;;7.80;7.00;;;;;;;12.19;83.24;98599.84;103816;278;38669;-73
2023/04/01 06:23:57;;;;;;;8.20;7.20;;;;;;;12.21;83.25;98604.73;103795;278;38799;-77
2023/04/01 06:26:36;;;;;;;7.70;7.00;;;;;;;12.29;83.56;98601.31;103814;278;38238;-70
2023/04/01 06:29:48;;;;;;;7.10;6.40;;;;;;;12.45;83.73;98604.04;103786;278;38262;-69
2023/04/01 06:32:48;;;;;;;6.80;5.60;;;;;;;12.52;82.63;98606.81;103850;278;38346;-72
2023/04/01 06:35:50;;;;;;;6.50;5.80;;;;;;;12.51;81.77;98607.77;103823;278;38697;-75
2023/04/01 06:38:45;;;;;;;5.30;4.80;;;;;;;12.48;81.44;98609.90;103830;278;38277;-75
2023/04/01 06:41:33;;;;;;;5.30;4.80;;;;;;;12.46;81.32;98608.48;103792;278;38299;-73
2023/04/01 06:44:18;;;;;;;5.50;5.00;;;;;;;12.46;80.81;98607.66;103828;278;39666;-75
2023/04/01 06:46:58;;;;;;;5.20;4.00;;;;;;;12.43;80.31;98606.98;103841;278;39445;-71
2023/04/01 06:49:50;;;;;;;4.50;3.80;;;;;;;12.43;80.46;98607.51;103784;278;39077;-73
2023/04/01 06:52:30;;;;;;;4.20;3.10;;;;;;;12.43;80.17;98606.27;103724;280;38932;-74
2023/04/01 06:55:14;;;;;;;3.50;3.20;;;;;;;12.45;79.76;98608.75;103894;278;38282;-72
2023/04/01 06:57:50;;;;;;;3.50;2.90;;;;;;;12.44;79.78;98605.37;103856;278;39216;-74
2023/04/01 07:00:30;;;;;;;3.30;2.90;;;;;;;12.46;79.58;98609.20;103720;279;175707;-72
2023/04/01 07:03:09;;;;;;;;;;;;;;;12.49;79.82;98606.73;103819;278;38443;-72
2023/04/01 07:05:44;;;;;;;4.40;3.10;;;;;;;12.55;80.45;98612.52;103834;278;38924;-72
2023/04/01 07:08:22;;;;;;;3.50;3.10;;;;;;;12.71;80.68;98609.80;103793;278;39060;-74
2023/04/01 07:10:59;;;;;;;3.90;3.20;;;;;;;12.81;79.93;98609.05;103834;278;38316;-73
2023/04/01 07:13:36;;;;;;;3.10;2.80;;;;;;;12.90;79.93;98616.25;103822;278;38265;-75
2023/04/01 07:16:18;;;;;;;4.40;3.00;;;;;;;12.97;79.39;98613.98;103887;278;39414;-72
2023/04/01 07:18:54;;;;;;;4.60;4.20;;;;;;;12.98;78.50;98616.20;103808;278;39659;-75
2023/04/01 07:21:35;;;;;;;4.50;4.10;;;;;;;12.97;78.89;98613.58;103796;278;39438;-70
2023/04/01 07:24:13;;;;;;;5.50;5.00;;;;;;;13.05;78.98;98612.98;103774;278;38701;-70
2023/04/01 07:26:47;;;;;;;6.30;5.70;;;;;;;13.04;78.50;98612.02;103813;278;38456;-70
2023/04/01 07:29:21;;;;;;;7.00;5.90;;;;;;;12.98;78.00;98613.38;103780;279;38315;-73
2023/04/01 07:32:23;;;;;;;7.10;6.40;;;;;;;12.88;77.88;98614.41;103766;279;38522;-72
2023/04/01 07:35:06;;;;;;;7.70;7.00;;;;;;;12.84;78.03;98613.90;103730;278;38756;-73
2023/04/01 07:37:46;;;;;;;9.60;8.60;;;;;;;12.86;78.78;98610.42;103784;278;38849;-70
2023/04/01 07:40:28;;;;;;;11.40;10.40;;;;;;;13.02;79.15;98609.71;103804;278;38716;-72
2023/04/01 07:43:27;;;;;;;11.10;10.10;;;;;;;13.21;78.86;98607.89;103821;278;38803;-72
2023/04/01 07:46:07;;;;;;;11.20;10.10;;;;;;;13.45;78.46;98613.58;103658;278;175132;-70
2023/04/01 07:48:46;;;;;;;11.00;10.00;;;;;;;13.77;78.94;98606.73;103794;278;38694;-72
2023/04/01 07:51:22;;;;;;;11.10;10.00;;;;;;;14.00;78.19;98607.18;103817;278;38406;-70
2023/04/01 07:54:02;;;;;;;11.60;10.50;;;;;;;14.04;76.15;98608.95;103802;278;40324;-70
2023/04/01 07:56:39;;;;;;;13.60;12.20;;;;;;;13.93;75.10;98612.27;103813;278;38319;-74
2023/04/01 07:59:18;;;;;;;14.20;12.90;;;;;;;13.83;75.00;98609.55;103791;278;38488;-74
2023/04/01 08:01:56;;;;;;;14.30;12.90;;;;;;;13.72;74.54;98610.45;103789;278;39556;-72
2023/04/01 08:04:41;;;;;;;16.60;14.60;;;;;;;13.56;74.49;98615.73;103765;278;39535;-71
2023/04/01 08:07:18;;;;;;;16.40;14.80;;;;;;;13.35;74.65;98615.94;103185;278;904704;-75
2023/04/01 08:09:55;;;;;;;15.40;13.80;;;;;;;13.23;75.05;98622.34;103794;278;38571;-74
2023/04/01 08:12:40;;;;;;;15.20;13.00;;;;;;;13.22;76.01;98621.69;103771;278;38582;-76
2023/04/01 08:15:21;;;;;;;14.90;13.40;;;;;;;13.27;76.50;98625.90;103806;278;40121;-74
2023/04/01 08:18:11;;;;;;;14.20;12.90;;;;;;;13.37;76.75;98623.90;103779;278;39419;-70
2023/04/01 08:20:49;;;;;;;13.80;12.20;;;;;;;13.51;77.39;98622.64;103738;278;39413;-70
2023/04/01 08:23:27;;;;;;;12.30;11.20;;;;;;;13.72;77.57;98620.05;103758;278;38254;-71
2023/04/01 08:26:02;;;;;;;12.70;11.40;;;;;;;13.91;76.98;98623.84;103812;278;38225;-72
2023/04/01 08:28:38;;;;;;;11.20;10.20;;;;;;;14.25;77.01;98624.64;103755;278;39784;-72
2023/04/01 08:31:15;;;;;;;11.70;9.30;;;;;;;14.55;76.70;98620.58;103753;278;39341;-72
2023/04/01 08:33:49;;;;;;;10.20;9.20;;;;;;;14.68;74.83;98624.58;103772;279;39431;-75
2023/04/01 08:36:24;;;;;;;10.10;9.30;;;;;;;14.69;73.68;98624.89;103777;278;39568;-72
2023/04/01 08:39:00;;;;;;;10.80;9.80;;;;;;;14.57;72.92;98625.03;103637;278;39441;-72
2023/04/01 08:42:05;;;;;;;12.60;11.40;;;;;;;14.51;73.16;98629.04;103828;278;38284;-70
2023/04/01 08:45:01;;;;;;;11.80;10.60;;;;;;;14.45;72.87;98632.81;103809;278;38500;-72
2023/04/01 08:47:53;;;;;;;11.90;10.70;;;;;;;14.30;72.10;98639.79;103803;279;38999;-74
2023/04/01 08:51:03;;;;;;;12.40;11.20;;;;;;;14.11;71.96;98641.02;103832;278;39413;-74
2023/04/01 08:53:55;;;;;;;10.90;9.80;;;;;;;13.95;72.37;98642.06;103782;278;39059;-72
2023/04/01 08:56:32;;;;;;;10.70;9.70;;;;;;;13.84;72.50;98643.67;103842;278;39902;-73
2023/04/01 08:59:35;;;;;;;11.30;10.10;;;;;;;13.77;72.39;98644.20;103676;278;38426;-72
2023/04/01 09:02:43;;;;;;;11.70;10.70;;;;;;;13.71;72.25;98642.21;103789;278;39469;-74
2023/04/01 09:05:38;;;;;;;10.80;9.80;;;;;;;13.63;72.39;98642.35;103770;278;39482;-71
2023/04/01 09:08:30;;;;;;;10.20;9.20;;;;;;;13.59;72.52;98642.80;103794;279;38370;-75
2023/04/01 09:11:33;;;;;;;9.80;8.90;;;;;;;13.56;72.59;98641.86;103657;278;39658;-72
2023/04/01 09:14:53;;;;;;;8.10;7.40;;;;;;;13.51;72.50;98646.27;103760;278;38272;-72
2023/04/01 09:17:54;;;;;;;8.70;7.90;;;;;;;13.52;72.85;98647.21;103784;278;39480;-71
2023/04/01 09:20:50;;;;;;;7.90;7.20;;;;;;;13.59;73.25;98649.86;103765;278;38509;-69
2023/04/01 09:23:56;;;;;;;7.80;6.90;;;;;;;13.68;72.94;98644.36;103662;278;39964;-72
2023/04/01 09:26:45;;;;;;;8.40;7.60;;;;;;;13.75;72.32;98645.80;103775;278;38536;-77
2023/04/01 09:29:31;;;;;;;8.60;7.80;;;;;;;13.76;72.65;98649.71;103751;278;38539;-74
2023/04/01 09:32:34;;;;;;;12.10;9.50;;;;;;;13.82;72.85;98650.66;103778;278;38248;-74
2023/04/01 09:35:22;;;;;;;7.60;6.90;;;;;;;13.83;71.88;98652.48;103214;279;635548;-73
2023/04/01 09:38:10;;;;;;;7.10;6.50;;;;;;;13.75;71.41;98656.81;103690;278;175178;-72
2023/04/01 09:40:50;;;;;;;6.90;6.10;;;;;;;13.60;71.00;98659.20;103764;279;39651;-73
2023/04/01 09:43:37;;;;;;;6.50;5.90;;;;;;;13.48;71.30;98661.20;103782;278;39715;-74
2023/04/01 09:46:19;;;;;;;6.80;6.30;;;;;;;13.40;71.49;98665.86;103762;278;38425;-72
2023/04/01 09:49:31;;;;;;;7.20;6.50;;;;;;;13.32;71.71;98666.48;103785;279;38518;-75
2023/04/01 09:52:16;;;;;;;6.30;5.70;;;;;;;13.27;71.97;98666.18;103560;278;38477;-74
2023/04/01 09:55:37;;;;;;;8.20;6.10;;;;;;;13.20;72.00;98665.77;103784;278;38680;-74
2023/04/01 09:58:35;;;;;;;6.30;5.70;;;;;;;13.21;72.85;98664.52;103710;278;38528;-73
2023/04/01 10:01:48;;;;;;;6.70;6.10;;;;;;;13.33;73.15;98665.16;103723;279;38484;-72
2023/04/01 10:05:08;;;;;;;7.70;6.90;;;;;;;13.47;73.03;98664.58;103249;279;39014;-73
2023/04/01 10:08:28;;;;;;;7.00;6.40;;;;;;;13.58;73.23;98666.58;103699;279;40138;-72
2023/04/01 10:11:42;;;;;;;5.90;5.30;;;;;;;13.70;72.99;98667.42;103713;279;38394;-73
2023/04/01 10:15:11;;;;;;;5.50;3.80;;;;;;;13.79;72.06;98668.22;103646;279;39318;-73
2023/04/01 10:18:39;;;;;;;3.50;3.20;;;;;;;13.92;70.78;98669.82;103668;279;38379;-75
2023/04/01 10:21:53;;;;;;;2.20;1.70;;;;;;;14.01;69.81;98672.34;103692;279;38298;-73
2023/04/01 10:25:02;;;;;;;1.50;1.40;;;;;;;14.17;70.02;98673.44;103548;279;38730;-74
2023/04/01 10:27:52;;;;;;;;;;;;;;;14.43;69.13;98672.26;103710;279;40112;-73
2023/04/01 10:30:52;;;;;;;2.80;2.60;;;;;;;14.63;68.02;98673.83;103740;279;38359;-73
2023/04/01 10:34:05;;;;;;;2.90;2.60;;;;;;;14.91;68.33;98667.66;103672;279;38486;-71
2023/04/01 10:36:57;;;;;;;3.40;3.10;;;;;;;15.27;68.07;98661.30;103704;279;38776;-75
2023/04/01 10:40:07;;;;;;;4.10;3.70;;;;;;;15.42;66.28;98661.27;103714;279;38427;-74
2023/04/01 10:43:11;;;;;;;3.80;3.40;;;;;;;15.38;65.71;98661.20;103645;279;39457;-73
2023/04/01 10:46:25;;;;;;;3.70;3.30;;;;;;;15.14;64.83;98668.73;103695;279;38559;-75
2023/04/01 10:49:37;;;;;;;4.10;3.70;;;;;;;14.82;65.20;98675.78;103661;279;39065;-74
2023/04/01 10:52:50;;;;;;;4.50;4.10;;;;;;;14.47;66.13;98674.03;103658;279;38270;-76
2023/04/01 10:55:57;;;;;;;5.80;5.30;;;;;;;14.17;67.53;98676.44;103634;279;38617;-74
2023/04/01 10:59:34;;;;;;;5.30;4.80;;;;;;;13.93;68.33;98674.50;103644;279;39428;-74
2023/04/01 11:03:21;;;;;;;4.70;4.30;;;;;;;13.70;69.86;98674.34;103511;279;38333;-73
2023/04/01 11:06:15;;;;;;;4.00;3.60;;;;;;;13.56;70.05;98682.10;103659;279;38940;-74
2023/04/01 11:09:12;;;;;;;3.80;3.50;;;;;;;13.51;70.65;98685.85;103584;279;39474;-73
2023/04/01 11:12:10;;;;;;;3.20;2.80;;;;;;;13.48;71.49;98689.63;103679;279;38525;-73
2023/04/01 11:15:17;;;;;;;2.90;2.60;;;;;;;13.51;72.20;98687.98;103700;279;39630;-74
2023/04/01 11:18:34;;;;;;;8.10;6.80;;;;;;;13.52;72.16;98689.95;103681;279;39824;-73
2023/04/01 11:21:49;;;;;;;3.70;3.10;;;;;;;13.57;71.93;98696.11;103646;279;38518;-74
2023/04/01 11:24:41;;;;;;;2.60;2.40;;;;;;;13.64;72.71;98694.30;103684;279;38668;-73
2023/04/01 11:27:30;;;;;;;2.10;1.90;;;;;;;13.70;72.16;98690.00;103679;279;39362;-73
2023/04/01 11:30:25;;;;;;;1.80;1.60;;;;;;;13.76;71.44;98692.54;103785;279;38950;-79
2023/04/01 11:33:03;;;;;;;2.50;1.60;;;;;;;13.79;71.05;98690.66;103660;279;38556;-75
2023/04/01 11:36:14;;;;;;;1.70;1.60;;;;;;;13.84;71.03;98690.29;103726;267;38813;-76
2023/04/01 11:39:00;;;;;;;1.70;1.60;;;;;;;13.87;70.66;98694.61;103658;279;38479;-72
2023/04/01 11:41:40;;;;;;;2.10;1.70;;;;;;;13.92;70.74;98697.55;103693;279;38503;-76
2023/04/01 11:44:23;;;;;;;1.80;1.70;;;;;;;14.01;71.34;98699.63;103639;279;38838;-74
2023/04/01 11:47:16;;;;;;;2.50;1.50;;;;;;;14.17;71.29;98695.05;103702;279;39399;-71
2023/04/01 11:50:03;;;;;;;3.50;2.80;;;;;;;14.34;70.73;98696.15;103670;279;38400;-73
2023/04/01 11:53:11;;;;;;;2.50;2.30;;;;;;;14.47;70.42;98697.23;103713;279;38370;-71
2023/04/01 11:55:56;;;;;;;1.10;1.00;;;;;;;14.61;69.72;98698.39;103719;279;39288;-73
2023/04/01 11:59:02;;;;;;;1.90;1.10;;;;;;;14.65;68.65;98698.40;103670;279;38490;-72
2023/04/01 12:01:49;;;;;;;1.10;1.00;;;;;;;14.72;68.65;98698.88;103749;279;39448;-73
2023/04/01 12:04:54;;;;;;;1.60;1.10;;;;;;;14.73;67.65;98696.70;103676;279;38231;-75
2023/04/01 12:07:53;;;;;;;1.40;0.90;;;;;;;14.65;67.88;98693.11;103724;279;39674;-75
2023/04/01 12:10:34;;;;;;;1.20;1.10;;;;;;;14.66;68.23;98697.60;103653;279;38588;-74
2023/04/01 12:13:13;;;;;;;1.20;1.00;;;;;;;14.69;67.96;98691.88;103668;279;38509;-72
2023/04/01 12:16:00;;;;;;;1.10;1.00;;;;;;;14.70;67.64;98693.77;103698;279;38962;-74
2023/04/01 12:18:39;;;;;;;2.50;2.00;;;;;;;14.73;67.32;98693.55;103578;279;175088;-71
2023/04/01 12:21:22;;;;;;;2.20;1.90;;;;;;;14.73;66.88;98696.39;103693;279;38234;-71
2023/04/01 12:24:37;;;;;;;1.80;1.70;;;;;;;14.70;66.95;98694.81;103736;279;39974;-72
2023/04/01 12:27:46;;;;;;;1.70;1.40;;;;;;;14.68;66.90;98696.02;103728;279;38293;-72
2023/04/01 12:30:45;;;;;;;1.80;1.30;;;;;;;14.79;67.30;98699.07;103727;279;38694;-74
2023/04/01 12:34:03;;;;;;;1.10;1.00;;;;;;;14.90;66.34;98700.89;103611;279;38721;-71
2023/04/01 12:36:52;;;;;;;2.90;2.40;;;;;;;14.89;65.08;98703.84;103446;279;38214;-74
2023/04/01 12:39:40;;;;;;;1.20;1.10;;;;;;;14.81;65.30;98708.38;103656;279;38372;-72
2023/04/01 12:42:21;;;;;;;1.90;1.20;;;;;;;14.78;65.05;98708.42;103701;279;38281;-70
2023/04/01 12:45:05;;;;;;;2.00;1.30;;;;;;;14.68;64.68;98708.85;103682;279;39916;-72